Maersk Dispatcher — XJAJ — position and weather

sailwx.info

Track history (hours):
 
Tides and Currents Weather Stations Pressure Air Temp Water Temp Dewpoint Dewpoint Depression Visibility Wind Speed Wind Dir Waves Ship Positions

Maersk Dispatcher

Last reported at 2016-Feb-14 03:32 UTC. Time now 2016-Feb-14 03:50 UTC.
Position N 47°34' W 052°42'.

Length 89 m; draft 6.5 m.

Type: Other ship. MMSI: 316013080.

Date/timePositionNaut miles runAvg speedWind from/ knotsBaromVisibWave heightAir tempDewpointWater temp
2016-Feb-14 03:32N 47°34' W 052°42'0 0.0
2016-Feb-14 02:31N 47°34' W 052°42'0 0.0
2016-Feb-14 01:29N 47°34' W 052°42'0 0.0
2016-Feb-14 00:32N 47°34' W 052°42'0 0.0
2016-Feb-13 23:28N 47°34' W 052°42'0 0.0
2016-Feb-13 22:30N 47°34' W 052°42'0 0.0
2016-Feb-13 21:33N 47°34' W 052°42'0 0.0
2016-Feb-13 20:30N 47°34' W 052°42'0 0.0
2016-Feb-13 16:28N 47°34' W 052°42'0 0.0
2016-Feb-13 15:12N 47°34' W 052°42'0 0.0
2016-Feb-13 14:30N 47°34' W 052°42'0 0.0
2016-Feb-13 08:19N 47°34' W 052°42'0 0.0
2016-Feb-12 23:29N 47°34' W 052°42'0 0.0
2016-Feb-12 22:32N 47°34' W 052°42'0 0.0
2016-Feb-12 21:29N 47°34' W 052°42'0 0.0
2016-Feb-12 20:33N 47°34' W 052°42'0 0.0
2016-Feb-12 19:31N 47°34' W 052°42'0 0.0
2016-Feb-12 18:32N 47°34' W 052°42'2 1.9
2016-Feb-12 17:30N 47°33' W 052°39'0 0.3
2016-Feb-12 16:28N 47°33' W 052°40'0 0.0
2016-Feb-12 14:28N 47°33' W 052°40'0 0.0
2016-Feb-12 13:30N 47°33' W 052°40'1 1.4
2016-Feb-12 12:32N 47°34' W 052°41'1 0.8
2016-Feb-12 11:28N 47°34' W 052°42'0 0.0
2016-Feb-12 10:32N 47°34' W 052°42'0 0.0
2016-Feb-12 09:32N 47°34' W 052°42'0 0.0
2016-Feb-12 08:31N 47°34' W 052°42'0 0.0
2016-Feb-12 07:30N 47°34' W 052°42'0 0.0
2016-Feb-12 06:29N 47°34' W 052°42'0 0.0
2016-Feb-12 05:33N 47°34' W 052°42'0 0.0
2016-Feb-12 04:32N 47°34' W 052°42'0 0.0
2016-Feb-12 03:31N 47°34' W 052°42'0 0.0
2016-Feb-12 02:29N 47°34' W 052°42'0 0.0
2016-Feb-12 01:33N 47°34' W 052°42'0 0.0
2016-Feb-12 00:30N 47°34' W 052°42'0 0.3
2016-Feb-11 23:28N 47°34' W 052°42'0 0.0
2016-Feb-11 22:32N 47°34' W 052°42'0 0.0
2016-Feb-11 21:31N 47°34' W 052°42'0 0.0
2016-Feb-11 20:30N 47°34' W 052°42'0 0.5
2016-Feb-11 19:32N 47°34' W 052°42'0 0.0
2016-Feb-11 18:30N 47°34' W 052°42'0 0.0
2016-Feb-11 17:31N 47°34' W 052°42'0 0.0
2016-Feb-11 15:21N 47°34' W 052°42'0 0.0
2016-Feb-11 13:28N 47°34' W 052°42'0 0.0
2016-Feb-11 12:28N 47°34' W 052°42'0 0.0
2016-Feb-11 11:27N 47°34' W 052°42'0 0.0
2016-Feb-11 10:26N 47°34' W 052°42'0 0.0
2016-Feb-11 09:33N 47°34' W 052°42'0 0.0
2016-Feb-11 08:28N 47°34' W 052°42'0 0.0
2016-Feb-11 07:15N 47°34' W 052°42'0 0.0
2016-Feb-11 06:28N 47°34' W 052°42'0 0.0
2016-Feb-11 05:32N 47°34' W 052°42'0 0.0
2016-Feb-11 04:23N 47°34' W 052°42'0 0.0
2016-Feb-11 02:32N 47°34' W 052°42'0 0.0
2016-Feb-11 01:32N 47°34' W 052°42'0 0.0
2016-Feb-11 00:30N 47°34' W 052°42'0 0.0
2016-Feb-10 23:30N 47°34' W 052°42'0 0.0
2016-Feb-10 22:30N 47°34' W 052°42'0 0.0
2016-Feb-10 21:28N 47°34' W 052°42'0 0.0
2016-Feb-10 20:31N 47°34' W 052°42'0 0.0
2016-Feb-10 19:33N 47°34' W 052°42'0 0.0
2016-Feb-10 18:26N 47°34' W 052°42'0 0.0
2016-Feb-10 17:29N 47°34' W 052°42'0 0.0
2016-Feb-10 16:30N 47°34' W 052°42'0 0.0
2016-Feb-10 15:31N 47°34' W 052°42'0 0.0
2016-Feb-10 14:29N 47°34' W 052°42'0 0.1
2016-Feb-10 13:31N 47°34' W 052°42'0 0.0
2016-Feb-10 12:30N 47°34' W 052°42'0 0.0
2016-Feb-10 11:32N 47°34' W 052°42'0 0.1
2016-Feb-10 10:30N 47°34' W 052°42'0 0.0
2016-Feb-10 09:33N 47°34' W 052°42'0 0.0
2016-Feb-10 08:33N 47°34' W 052°42'0 0.0
2016-Feb-10 07:26N 47°34' W 052°42'0 0.0
2016-Feb-10 06:30N 47°34' W 052°42'0 0.0
2016-Feb-10 05:33N 47°34' W 052°42'0 0.0
2016-Feb-09 22:21N 47°34' W 052°42'0 0.0
2016-Feb-09 21:32N 47°34' W 052°42'6 6.0
2016-Feb-09 20:29N 47°33' W 052°33'1010.1
2016-Feb-09 19:28N 47°30' W 052°18'  
Track history (hours):
 
Tides and Currents Weather Stations Pressure Air Temp Water Temp Dewpoint Dewpoint Depression Visibility Wind Speed Wind Dir Waves Ship Positions

Maersk Dispatcher

Last reported at 2016-Feb-14 03:32 UTC. Time now 2016-Feb-14 03:50 UTC.
Position N 47°34' W 052°42'.

Length 89 m; draft 6.5 m.

Type: Other ship. MMSI: 316013080.

Date/timePositionNaut miles runAvg speedWind from/ knotsBaromVisibWave heightAir tempDewpointWater temp
2016-Feb-14 03:32N 47°34' W 052°42'0 0.0
2016-Feb-14 02:31N 47°34' W 052°42'0 0.0
2016-Feb-14 01:29N 47°34' W 052°42'0 0.0
2016-Feb-14 00:32N 47°34' W 052°42'0 0.0
2016-Feb-13 23:28N 47°34' W 052°42'0 0.0
2016-Feb-13 22:30N 47°34' W 052°42'0 0.0
2016-Feb-13 21:33N 47°34' W 052°42'0 0.0
2016-Feb-13 20:30N 47°34' W 052°42'0 0.0
2016-Feb-13 16:28N 47°34' W 052°42'0 0.0
2016-Feb-13 15:12N 47°34' W 052°42'0 0.0
2016-Feb-13 14:30N 47°34' W 052°42'0 0.0
2016-Feb-13 08:19N 47°34' W 052°42'0 0.0
2016-Feb-12 23:29N 47°34' W 052°42'0 0.0
2016-Feb-12 22:32N 47°34' W 052°42'0 0.0
2016-Feb-12 21:29N 47°34' W 052°42'0 0.0
2016-Feb-12 20:33N 47°34' W 052°42'0 0.0
2016-Feb-12 19:31N 47°34' W 052°42'0 0.0
2016-Feb-12 18:32N 47°34' W 052°42'2 1.9
2016-Feb-12 17:30N 47°33' W 052°39'0 0.3
2016-Feb-12 16:28N 47°33' W 052°40'0 0.0
2016-Feb-12 14:28N 47°33' W 052°40'0 0.0
2016-Feb-12 13:30N 47°33' W 052°40'1 1.4
2016-Feb-12 12:32N 47°34' W 052°41'1 0.8
2016-Feb-12 11:28N 47°34' W 052°42'0 0.0
2016-Feb-12 10:32N 47°34' W 052°42'0 0.0
2016-Feb-12 09:32N 47°34' W 052°42'0 0.0
2016-Feb-12 08:31N 47°34' W 052°42'0 0.0
2016-Feb-12 07:30N 47°34' W 052°42'0 0.0
2016-Feb-12 06:29N 47°34' W 052°42'0 0.0
2016-Feb-12 05:33N 47°34' W 052°42'0 0.0
2016-Feb-12 04:32N 47°34' W 052°42'0 0.0
2016-Feb-12 03:31N 47°34' W 052°42'0 0.0
2016-Feb-12 02:29N 47°34' W 052°42'0 0.0
2016-Feb-12 01:33N 47°34' W 052°42'0 0.0
2016-Feb-12 00:30N 47°34' W 052°42'0 0.3
2016-Feb-11 23:28N 47°34' W 052°42'0 0.0
2016-Feb-11 22:32N 47°34' W 052°42'0 0.0
2016-Feb-11 21:31N 47°34' W 052°42'0 0.0
2016-Feb-11 20:30N 47°34' W 052°42'0 0.5
2016-Feb-11 19:32N 47°34' W 052°42'0 0.0
2016-Feb-11 18:30N 47°34' W 052°42'0 0.0
2016-Feb-11 17:31N 47°34' W 052°42'0 0.0
2016-Feb-11 15:21N 47°34' W 052°42'0 0.0
2016-Feb-11 13:28N 47°34' W 052°42'0 0.0
2016-Feb-11 12:28N 47°34' W 052°42'0 0.0
2016-Feb-11 11:27N 47°34' W 052°42'0 0.0
2016-Feb-11 10:26N 47°34' W 052°42'0 0.0
2016-Feb-11 09:33N 47°34' W 052°42'0 0.0
2016-Feb-11 08:28N 47°34' W 052°42'0 0.0
2016-Feb-11 07:15N 47°34' W 052°42'0 0.0
2016-Feb-11 06:28N 47°34' W 052°42'0 0.0
2016-Feb-11 05:32N 47°34' W 052°42'0 0.0
2016-Feb-11 04:23N 47°34' W 052°42'0 0.0
2016-Feb-11 02:32N 47°34' W 052°42'0 0.0
2016-Feb-11 01:32N 47°34' W 052°42'0 0.0
2016-Feb-11 00:30N 47°34' W 052°42'0 0.0
2016-Feb-10 23:30N 47°34' W 052°42'0 0.0
2016-Feb-10 22:30N 47°34' W 052°42'0 0.0
2016-Feb-10 21:28N 47°34' W 052°42'0 0.0
2016-Feb-10 20:31N 47°34' W 052°42'0 0.0
2016-Feb-10 19:33N 47°34' W 052°42'0 0.0
2016-Feb-10 18:26N 47°34' W 052°42'0 0.0
2016-Feb-10 17:29N 47°34' W 052°42'0 0.0
2016-Feb-10 16:30N 47°34' W 052°42'0 0.0
2016-Feb-10 15:31N 47°34' W 052°42'0 0.0
2016-Feb-10 14:29N 47°34' W 052°42'0 0.1
2016-Feb-10 13:31N 47°34' W 052°42'0 0.0
2016-Feb-10 12:30N 47°34' W 052°42'0 0.0
2016-Feb-10 11:32N 47°34' W 052°42'0 0.1
2016-Feb-10 10:30N 47°34' W 052°42'0 0.0
2016-Feb-10 09:33N 47°34' W 052°42'0 0.0
2016-Feb-10 08:33N 47°34' W 052°42'0 0.0
2016-Feb-10 07:26N 47°34' W 052°42'0 0.0
2016-Feb-10 06:30N 47°34' W 052°42'0 0.0
2016-Feb-10 05:33N 47°34' W 052°42'0 0.0
2016-Feb-09 22:21N 47°34' W 052°42'0 0.0
2016-Feb-09 21:32N 47°34' W 052°42'6 6.0
2016-Feb-09 20:29N 47°33' W 052°33'1010.1
2016-Feb-09 19:28N 47°30' W 052°18'  

Dump ship's entire track history